createdAt,value
2022-11-02T00:02:09.900Z,10.50
2022-11-02T00:04:39.411Z,10.25
2022-11-02T00:07:09.602Z,12.10
2022-11-02T00:09:38.907Z,11.15
2022-11-02T00:12:09.787Z,9.77
2022-11-02T00:14:40.683Z,10.05
2022-11-02T00:17:10.297Z,11.02
2022-11-02T00:19:39.743Z,10.68
2022-11-02T00:22:09.667Z,10.55
2022-11-02T00:24:39.004Z,10.95
2022-11-02T00:27:09.495Z,13.00
2022-11-02T00:29:40.576Z,10.37
2022-11-02T00:32:10.613Z,12.40
2022-11-02T00:34:40.053Z,12.10
2022-11-02T00:37:09.967Z,12.68
2022-11-02T00:39:39.435Z,12.52
2022-11-02T00:42:09.518Z,13.68
2022-11-02T00:44:40.514Z,13.18
2022-11-02T00:47:11.928Z,15.30
2022-11-02T00:49:41.713Z,14.02
2022-11-02T00:52:11.642Z,14.68
2022-11-02T00:54:41.091Z,14.05
2022-11-02T00:57:10.662Z,14.52
2022-11-02T00:59:41.508Z,14.40
2022-11-02T01:02:11.789Z,14.80
2022-11-02T01:04:41.183Z,16.88
2022-11-02T01:07:11.086Z,15.77
2022-11-02T01:09:40.328Z,14.73
2022-11-02T01:12:10.607Z,14.88
2022-11-02T01:14:41.333Z,15.55
2022-11-02T01:17:10.900Z,15.77
2022-11-02T01:19:40.163Z,15.30
2022-11-02T01:22:10.251Z,17.70
2022-11-02T01:24:39.730Z,15.57
2022-11-02T01:27:09.886Z,16.25
2022-11-02T01:29:40.964Z,18.23
2022-11-02T01:32:11.190Z,16.52
2022-11-02T01:34:40.686Z,18.60
2022-11-02T01:37:10.214Z,17.27
2022-11-02T01:39:39.442Z,16.80
2022-11-02T01:42:19.908Z,16.60
2022-11-02T01:44:50.907Z,16.27
2022-11-02T01:47:26.317Z,15.52
2022-11-02T01:49:59.281Z,17.50
2022-11-02T01:52:34.488Z,17.60
2022-11-02T01:55:08.390Z,17.15
2022-11-02T01:57:40.118Z,15.43
2022-11-02T02:00:13.320Z,16.85
2022-11-02T02:02:49.280Z,16.95
2022-11-02T02:05:19.961Z,16.38
2022-11-02T02:07:51.548Z,16.58
2022-11-02T02:12:51.066Z,16.67
2022-11-02T02:15:26.035Z,16.35
2022-11-02T02:18:03.714Z,17.70
2022-11-02T02:20:53.262Z,16.17
2022-11-02T02:23:49.864Z,15.10
2022-11-02T02:26:58.123Z,16.92
2022-11-02T02:29:34.195Z,16.15
2022-11-02T02:32:10.668Z,16.92
2022-11-02T02:34:49.095Z,16.63
2022-11-02T02:37:23.522Z,17.13
2022-11-02T02:39:58.662Z,16.33
2022-11-02T02:42:33.489Z,16.63
2022-11-02T02:45:12.267Z,15.73
2022-11-02T02:47:49.792Z,16.05
2022-11-02T02:50:22.880Z,16.33
2022-11-02T02:52:53.975Z,16.05
2022-11-02T02:55:28.634Z,16.85
2022-11-02T02:57:59.534Z,16.58
2022-11-02T03:00:35.309Z,16.35
2022-11-02T03:03:06.691Z,16.88
2022-11-02T03:05:38.508Z,17.65
2022-11-02T03:08:12.280Z,16.67
2022-11-02T03:10:49.266Z,17.98
2022-11-02T03:13:37.230Z,17.13
2022-11-02T03:16:18.375Z,14.93
2022-11-02T03:18:53.300Z,15.85
2022-11-02T03:21:32.331Z,16.42
2022-11-02T03:24:06.523Z,16.23
2022-11-02T03:26:44.912Z,17.63
2022-11-02T03:29:18.007Z,17.58
2022-11-02T03:31:58.050Z,16.90
2022-11-02T03:34:30.591Z,16.75
2022-11-02T03:37:05.947Z,18.45
2022-11-02T03:39:38.924Z,19.92
2022-11-02T03:42:11.595Z,19.75
2022-11-02T03:44:42.096Z,18.38
2022-11-02T03:47:18.035Z,20.42
2022-11-02T03:49:50.422Z,19.60
2022-11-02T03:52:25.093Z,19.10
2022-11-02T03:55:01.799Z,20.15
2022-11-02T03:57:37.235Z,18.00
2022-11-02T04:00:12.222Z,19.52
2022-11-02T04:02:47.458Z,19.38
2022-11-02T04:05:17.171Z,20.13
2022-11-02T04:08:08.874Z,19.73
2022-11-02T04:13:41.329Z,19.65
2022-11-02T04:16:10.597Z,21.33
2022-11-02T04:18:58.683Z,19.83
2022-11-02T04:21:27.966Z,20.95
2022-11-02T04:24:55.103Z,20.20
2022-11-02T04:27:24.544Z,20.85
2022-11-02T04:29:54.114Z,20.83
2022-11-02T04:32:37.151Z,21.80
2022-11-02T04:35:10.061Z,21.38
2022-11-02T04:37:58.555Z,22.55
2022-11-02T04:40:28.721Z,20.70
2022-11-02T04:42:58.154Z,22.67
2022-11-02T04:45:28.187Z,22.40
2022-11-02T04:48:02.451Z,20.73
2022-11-02T04:50:34.440Z,21.75
2022-11-02T04:53:05.326Z,20.77
2022-11-02T04:55:36.021Z,22.45
2022-11-02T04:58:05.581Z,22.27
2022-11-02T05:00:35.913Z,22.10
2022-11-02T05:03:08.106Z,22.73
2022-11-02T05:05:42.788Z,22.73
2022-11-02T05:08:12.187Z,23.98
2022-11-02T05:10:42.204Z,22.27
2022-11-02T05:13:12.557Z,22.45
2022-11-02T05:15:42.940Z,23.88
2022-11-02T05:18:17.648Z,20.73
2022-11-02T05:20:53.880Z,22.35
2022-11-02T05:23:23.688Z,22.33
2022-11-02T05:25:58.166Z,23.17
2022-11-02T05:28:28.453Z,23.33
2022-11-02T05:33:31.259Z,22.00
2022-11-02T05:36:03.163Z,23.83
2022-11-02T05:38:32.657Z,24.77
2022-11-02T05:41:02.668Z,23.80
2022-11-02T05:43:32.120Z,21.85
2022-11-02T05:46:03.517Z,22.00
2022-11-02T05:48:34.162Z,23.58
2022-11-02T05:51:06.735Z,22.58
2022-11-02T05:53:38.585Z,23.10
2022-11-02T05:56:11.438Z,22.98
2022-11-02T05:58:40.736Z,23.98
2022-11-02T06:01:12.498Z,22.13
2022-11-02T06:03:42.193Z,22.15
2022-11-02T06:06:13.864Z,21.30
2022-11-02T06:08:43.248Z,21.52
2022-11-02T06:11:40.518Z,21.50
2022-11-02T06:14:09.874Z,21.75
2022-11-02T06:16:39.789Z,21.90
2022-11-02T06:19:09.138Z,19.98
2022-11-02T06:21:43.219Z,20.33
2022-11-02T06:24:15.737Z,20.40
2022-11-02T06:26:47.273Z,20.52
2022-11-02T06:31:46.291Z,17.60
2022-11-02T06:34:15.611Z,19.17
2022-11-02T06:36:47.027Z,17.00
2022-11-02T06:41:46.167Z,17.15
2022-11-02T06:44:15.631Z,17.33
2022-11-02T06:46:45.525Z,16.05
2022-11-02T06:49:15.104Z,17.27
2022-11-02T06:51:46.094Z,16.98
2022-11-02T06:54:15.355Z,16.75
2022-11-02T06:56:45.480Z,16.33
2022-11-02T06:59:14.722Z,15.80
2022-11-02T07:01:44.989Z,16.63
2022-11-02T07:04:14.613Z,16.13
2022-11-02T07:06:45.984Z,16.73
2022-11-02T07:09:15.802Z,15.93
2022-11-02T07:11:45.636Z,16.50
2022-11-02T07:14:15.001Z,15.98
2022-11-02T07:16:45.086Z,16.63
2022-11-02T07:19:14.743Z,15.45
2022-11-02T07:21:47.704Z,16.15
2022-11-02T07:24:17.460Z,15.05
2022-11-02T07:26:50.483Z,13.95
2022-11-02T07:29:20.180Z,15.82
2022-11-02T07:31:50.295Z,14.23
2022-11-02T07:34:19.654Z,14.10
2022-11-02T07:36:51.061Z,15.13
2022-11-02T07:39:20.784Z,15.05
2022-11-02T07:41:52.009Z,15.43
2022-11-02T07:44:21.516Z,15.02
2022-11-02T07:46:51.224Z,13.60
2022-11-02T07:49:21.733Z,12.18
2022-11-02T07:51:53.247Z,14.57
2022-11-02T07:54:22.475Z,13.25
2022-11-02T07:56:52.427Z,13.40
2022-11-02T07:59:22.455Z,13.05
2022-11-02T08:01:52.385Z,11.63
2022-11-02T08:06:54.070Z,11.32
2022-11-02T08:09:23.749Z,14.50
2022-11-02T08:12:11.348Z,13.30
2022-11-02T08:14:40.735Z,13.02
2022-11-02T08:17:10.479Z,12.35
2022-11-02T08:19:40.115Z,13.07
2022-11-02T08:22:10.921Z,12.18
2022-11-02T08:24:40.814Z,12.68
2022-11-02T08:27:10.067Z,11.38
2022-11-02T08:29:39.871Z,13.88
2022-11-02T08:32:09.294Z,10.27
2022-11-02T08:34:39.249Z,12.23
2022-11-02T08:37:10.958Z,11.57
2022-11-02T08:39:40.947Z,11.13
2022-11-02T08:42:10.678Z,11.98
2022-11-02T08:44:42.759Z,13.73
2022-11-02T08:47:12.154Z,11.75
2022-11-02T08:49:42.093Z,12.97
2022-11-02T08:52:12.832Z,12.35
2022-11-02T08:54:42.766Z,11.68
2022-11-02T08:57:12.224Z,11.77
2022-11-02T08:59:42.159Z,10.40
2022-11-02T09:02:12.107Z,10.77
2022-11-02T09:04:42.034Z,9.02
2022-11-02T09:07:12.897Z,9.13
2022-11-02T09:09:42.692Z,10.23
2022-11-02T09:12:11.952Z,8.88
2022-11-02T09:14:41.876Z,8.53
2022-11-02T09:17:11.152Z,9.90
2022-11-02T09:19:41.306Z,9.00
2022-11-02T09:22:12.029Z,8.25
2022-11-02T09:24:42.003Z,7.75
2022-11-02T09:27:11.344Z,6.75
2022-11-02T09:29:41.301Z,6.77
2022-11-02T09:32:10.559Z,6.32
2022-11-02T09:34:40.313Z,5.65
2022-11-02T09:37:09.568Z,5.72
2022-11-02T09:39:40.955Z,5.23
2022-11-02T09:42:27.634Z,4.90
2022-11-02T09:45:00.827Z,6.05
2022-11-02T09:52:59.689Z,5.25
2022-11-02T09:55:36.917Z,5.35
2022-11-02T09:58:13.609Z,4.40
2022-11-02T10:00:47.311Z,3.45
2022-11-02T10:03:30.216Z,4.13
2022-11-02T10:06:07.651Z,3.78
2022-11-02T10:08:43.704Z,4.05
2022-11-02T10:11:28.331Z,3.95
2022-11-02T10:14:02.704Z,4.38
2022-11-02T10:16:37.630Z,4.38
2022-11-02T10:19:13.298Z,4.22
2022-11-02T10:21:46.803Z,4.30
2022-11-02T10:24:25.320Z,4.15
2022-11-02T10:27:00.746Z,4.82
2022-11-02T10:29:42.865Z,4.93
2022-11-02T10:32:15.094Z,5.53
2022-11-02T10:34:58.567Z,6.47
2022-11-02T10:37:46.016Z,5.50
2022-11-02T10:43:06.611Z,4.05
2022-11-02T10:46:02.334Z,4.32
2022-11-02T10:48:38.104Z,4.75
2022-11-02T10:51:12.671Z,5.95
2022-11-02T10:53:44.990Z,4.70
2022-11-02T10:56:18.703Z,4.28
2022-11-02T10:58:58.053Z,5.05
2022-11-02T11:01:28.127Z,4.07
2022-11-02T11:04:00.567Z,3.95
2022-11-02T11:06:38.805Z,4.60
2022-11-02T11:09:17.435Z,5.47
2022-11-02T11:11:55.835Z,5.32
2022-11-02T11:20:33.455Z,5.93
2022-11-02T11:23:26.941Z,6.78
2022-11-02T11:25:59.422Z,6.93
2022-11-02T11:28:31.599Z,6.97
2022-11-02T11:31:10.734Z,7.28
2022-11-02T11:33:49.309Z,7.70
2022-11-02T11:36:29.272Z,7.22
2022-11-02T11:39:01.109Z,7.20
2022-11-02T11:41:32.456Z,7.28
2022-11-02T11:44:03.382Z,8.80
2022-11-02T11:46:47.818Z,9.23
2022-11-02T11:49:35.849Z,10.07
2022-11-02T11:52:21.015Z,9.95
2022-11-02T11:54:58.153Z,10.57
2022-11-02T11:57:31.954Z,8.98
2022-11-02T12:00:05.338Z,10.18
2022-11-02T12:02:44.175Z,8.98
2022-11-02T12:05:16.996Z,8.82
2022-11-02T12:08:12.482Z,10.02
2022-11-02T12:11:00.772Z,8.90
2022-11-02T12:13:47.773Z,10.15
2022-11-02T12:16:26.768Z,8.25
2022-11-02T12:19:20.487Z,8.38
2022-11-02T12:22:03.159Z,7.80
2022-11-02T12:25:12.329Z,7.88
2022-11-02T12:27:52.316Z,7.85
2022-11-02T12:30:23.413Z,6.97
2022-11-02T12:35:58.904Z,7.47
2022-11-02T12:38:52.421Z,6.68
2022-11-02T12:41:41.308Z,8.13
2022-11-02T12:44:27.296Z,6.82
2022-11-02T12:47:02.981Z,8.15
2022-11-02T12:49:43.367Z,9.07
2022-11-02T12:52:28.247Z,9.18
2022-11-02T12:55:00.140Z,7.78
2022-11-02T12:57:36.590Z,7.65
2022-11-02T13:00:10.147Z,8.45
2022-11-02T13:02:48.074Z,8.05
2022-11-02T13:05:21.578Z,7.95
2022-11-02T13:08:03.059Z,7.93
2022-11-02T13:13:07.094Z,8.07
2022-11-02T13:15:39.737Z,7.50
2022-11-02T13:18:17.412Z,7.20
2022-11-02T13:20:50.577Z,7.15
2022-11-02T13:23:32.966Z,7.63
2022-11-02T13:26:06.023Z,7.28
2022-11-02T13:28:42.166Z,6.70
2022-11-02T13:31:17.786Z,7.05
2022-11-02T13:33:50.779Z,7.05
2022-11-02T13:36:20.615Z,6.80
2022-11-02T13:38:57.468Z,7.50
2022-11-02T13:41:41.868Z,6.88
2022-11-02T13:44:55.308Z,7.63
2022-11-02T13:47:43.864Z,6.18
2022-11-02T13:50:16.839Z,6.90
2022-11-02T13:52:50.552Z,6.50
2022-11-02T13:55:25.771Z,6.88
2022-11-02T13:57:58.219Z,7.22
2022-11-02T14:00:38.728Z,6.68
2022-11-02T14:03:16.899Z,6.45
2022-11-02T14:05:52.109Z,6.47
2022-11-02T14:08:24.219Z,8.55
2022-11-02T14:11:38.546Z,6.38
2022-11-02T14:14:33.197Z,6.10
2022-11-02T14:17:14.691Z,7.07
2022-11-02T14:19:56.134Z,6.15
2022-11-02T14:22:26.282Z,6.60
2022-11-02T14:25:22.495Z,7.03
2022-11-02T14:27:55.841Z,6.85
2022-11-02T14:30:45.837Z,6.13
2022-11-02T14:33:45.158Z,7.00
2022-11-02T14:36:30.839Z,6.15
2022-11-02T14:39:07.057Z,6.78
2022-11-02T14:42:06.595Z,7.35
2022-11-02T14:44:59.665Z,8.10
2022-11-02T14:47:33.080Z,7.28
2022-11-02T14:50:10.224Z,7.28
2022-11-02T14:52:40.244Z,8.00
2022-11-02T14:55:23.355Z,7.90
2022-11-02T14:57:57.728Z,8.52
2022-11-02T15:00:35.564Z,8.27
2022-11-02T15:03:09.275Z,9.38
2022-11-02T15:05:41.187Z,8.63
2022-11-02T15:08:20.341Z,8.75
2022-11-02T15:10:50.280Z,8.70
2022-11-02T15:13:36.161Z,8.88
2022-11-02T15:16:26.070Z,7.97
2022-11-02T15:19:17.240Z,7.68
2022-11-02T15:21:47.567Z,7.63
2022-11-02T15:24:21.630Z,8.65
2022-11-02T15:26:55.375Z,6.45
2022-11-02T15:29:37.266Z,7.03
2022-11-02T15:32:11.340Z,7.07
2022-11-02T15:34:46.216Z,5.50
2022-11-02T15:37:22.209Z,5.57
2022-11-02T15:39:52.483Z,5.22
2022-11-02T15:42:33.639Z,6.03
2022-11-02T15:45:46.946Z,5.13
2022-11-02T15:48:40.811Z,5.55
2022-11-02T15:51:19.867Z,4.93
2022-11-02T15:54:15.389Z,5.90
2022-11-02T15:56:56.935Z,5.38
2022-11-02T16:00:04.853Z,4.72
2022-11-02T16:02:36.806Z,5.63
2022-11-02T16:05:07.638Z,4.93
2022-11-02T16:07:57.289Z,4.45
2022-11-02T16:10:30.500Z,5.20
2022-11-02T16:15:31.341Z,4.72
2022-11-02T16:18:00.613Z,5.88
2022-11-02T16:20:32.328Z,4.97
2022-11-02T16:23:04.377Z,5.00
2022-11-02T16:25:39.907Z,4.65
2022-11-02T16:28:19.809Z,4.63
2022-11-02T16:31:10.065Z,4.20
2022-11-02T16:33:46.020Z,5.22
2022-11-02T16:36:19.141Z,4.75
2022-11-02T16:38:55.520Z,4.72
2022-11-02T16:41:27.698Z,5.05
2022-11-02T16:43:58.150Z,5.63
2022-11-02T16:46:33.023Z,6.70
2022-11-02T16:49:13.387Z,5.45
2022-11-02T16:51:54.663Z,5.35
2022-11-02T16:54:49.188Z,6.57
2022-11-02T16:57:22.791Z,5.25
2022-11-02T16:59:54.995Z,5.55
2022-11-02T17:02:36.989Z,5.95
2022-11-02T17:05:07.999Z,6.10
2022-11-02T17:07:42.914Z,5.35
2022-11-02T17:10:22.073Z,5.15
2022-11-02T17:12:52.108Z,5.25
2022-11-02T17:15:23.676Z,5.32
2022-11-02T17:18:17.006Z,6.13
2022-11-02T17:20:46.538Z,6.43
2022-11-02T17:23:34.316Z,4.88
2022-11-02T17:26:33.004Z,4.65
2022-11-02T17:29:05.422Z,4.78
2022-11-02T17:31:36.768Z,4.75
2022-11-02T17:34:11.645Z,4.75
2022-11-02T17:36:46.320Z,5.43
2022-11-02T17:39:17.232Z,4.95
2022-11-02T17:42:06.878Z,5.82
2022-11-02T17:44:38.035Z,5.03
2022-11-02T17:47:13.790Z,5.07
2022-11-02T17:49:43.702Z,5.10
2022-11-02T17:52:16.628Z,5.32
2022-11-02T17:54:46.963Z,4.40
2022-11-02T17:57:17.450Z,4.45
2022-11-02T17:59:48.915Z,4.45
2022-11-02T18:02:18.617Z,4.70
2022-11-02T18:04:49.381Z,4.82
2022-11-02T18:07:19.573Z,5.35
2022-11-02T18:12:19.062Z,4.22
2022-11-02T18:14:50.143Z,4.82
2022-11-02T18:17:19.690Z,4.75
2022-11-02T18:19:49.881Z,4.47
2022-11-02T18:22:19.173Z,4.63
2022-11-02T18:24:48.998Z,5.38
2022-11-02T18:27:18.665Z,4.32
2022-11-02T18:29:50.047Z,4.57
2022-11-02T18:32:19.809Z,4.57
2022-11-02T18:34:49.755Z,5.78
2022-11-02T18:37:19.072Z,5.18
2022-11-02T18:39:49.008Z,4.23
2022-11-02T18:42:20.712Z,4.80
2022-11-02T18:44:57.233Z,4.60
2022-11-02T18:47:26.949Z,4.40
2022-11-02T18:49:56.876Z,5.90
2022-11-02T18:52:29.545Z,4.38
2022-11-02T18:55:04.204Z,3.95
2022-11-02T18:57:34.209Z,5.35
2022-11-02T19:00:06.397Z,5.50
2022-11-02T19:02:35.954Z,4.38
2022-11-02T19:05:26.516Z,4.75
2022-11-02T19:08:12.919Z,4.68
2022-11-02T19:10:43.467Z,5.13
2022-11-02T19:13:12.695Z,4.13
2022-11-02T19:15:44.505Z,4.00
2022-11-02T19:18:14.172Z,3.90
2022-11-02T19:20:44.302Z,5.00
2022-11-02T19:23:14.096Z,4.80
2022-11-02T19:25:44.046Z,4.38
2022-11-02T19:28:13.309Z,4.20
2022-11-02T19:30:44.885Z,4.30
2022-11-02T19:33:14.355Z,3.75
2022-11-02T19:35:44.238Z,4.43
2022-11-02T19:38:13.487Z,3.60
2022-11-02T19:40:43.355Z,4.05
2022-11-02T19:43:12.587Z,4.25
2022-11-02T19:45:44.477Z,4.35
2022-11-02T19:48:13.972Z,4.22
2022-11-02T19:50:44.583Z,3.53
2022-11-02T19:53:14.304Z,3.53
2022-11-02T19:55:52.223Z,4.82
2022-11-02T19:58:21.647Z,4.57
2022-11-02T20:00:53.229Z,3.97
2022-11-02T20:05:52.528Z,3.90
2022-11-02T20:08:21.838Z,3.80
2022-11-02T20:10:51.854Z,4.07
2022-11-02T20:13:21.332Z,4.07
2022-11-02T20:15:58.648Z,3.63
2022-11-02T20:18:28.275Z,3.40
2022-11-02T20:21:05.251Z,3.50
2022-11-02T20:23:34.968Z,3.38
2022-11-02T20:26:07.322Z,4.30
2022-11-02T20:28:39.991Z,3.83
2022-11-02T20:31:13.491Z,3.85
2022-11-02T20:33:43.109Z,3.55
2022-11-02T20:36:13.222Z,3.70
2022-11-02T20:38:42.652Z,3.83
2022-11-02T20:41:14.489Z,3.78
2022-11-02T20:43:47.115Z,3.35
2022-11-02T20:49:29.350Z,3.42
2022-11-02T20:51:59.984Z,3.83
2022-11-02T20:54:30.115Z,4.15
2022-11-02T20:56:59.925Z,3.60
2022-11-02T20:59:29.748Z,3.20
2022-11-02T21:02:00.924Z,2.97
2022-11-02T21:07:00.202Z,2.83
2022-11-02T21:09:30.784Z,2.75
2022-11-02T21:14:46.874Z,3.17
2022-11-02T21:17:18.308Z,2.80
2022-11-02T21:19:47.555Z,2.47
2022-11-02T21:22:17.720Z,3.27
2022-11-02T21:24:47.312Z,2.60
2022-11-02T21:27:21.400Z,2.47
2022-11-02T21:29:51.294Z,4.13
2022-11-02T21:32:23.003Z,2.65
2022-11-02T21:34:52.260Z,2.60
2022-11-02T21:37:22.402Z,2.25
2022-11-02T21:39:51.663Z,2.63
2022-11-02T21:42:21.865Z,3.00
2022-11-02T21:44:51.443Z,3.40
2022-11-02T21:47:22.515Z,2.72
2022-11-02T21:49:52.095Z,2.42
2022-11-02T21:52:21.960Z,1.90
2022-11-02T21:54:51.400Z,2.17
2022-11-02T21:57:21.297Z,2.30
2022-11-02T21:59:50.557Z,2.40
2022-11-02T22:02:20.606Z,1.95
2022-11-02T22:04:53.727Z,1.85
2022-11-02T22:07:23.863Z,2.20
2022-11-02T22:09:53.156Z,2.40
2022-11-02T22:12:40.312Z,2.30
2022-11-02T22:15:10.887Z,2.15
2022-11-02T22:17:49.833Z,2.17
2022-11-02T22:20:19.359Z,1.92
2022-11-02T22:22:49.316Z,3.10
2022-11-02T22:25:18.758Z,3.25
2022-11-02T22:27:48.787Z,2.22
2022-11-02T22:30:18.156Z,1.92
2022-11-02T22:32:49.282Z,1.73
2022-11-02T22:35:18.579Z,1.55
2022-11-02T22:38:05.698Z,1.73
2022-11-02T22:40:35.221Z,1.83
2022-11-02T22:43:06.634Z,1.70
2022-11-02T22:45:36.198Z,2.53
2022-11-02T22:48:07.563Z,1.95
2022-11-02T22:50:37.143Z,1.98
2022-11-02T22:53:07.526Z,1.80
2022-11-02T22:55:37.180Z,2.22
2022-11-02T22:58:07.323Z,1.77
2022-11-02T23:00:36.891Z,1.85
2022-11-02T23:03:08.762Z,1.73
2022-11-02T23:05:39.211Z,1.70
2022-11-02T23:10:55.473Z,1.70
2022-11-02T23:13:25.525Z,2.45
2022-11-02T23:16:15.024Z,1.35
2022-11-02T23:19:03.585Z,1.73
2022-11-02T23:21:33.836Z,1.55
2022-11-02T23:24:21.129Z,1.35
2022-11-02T23:26:50.377Z,1.55
2022-11-02T23:29:38.499Z,1.55
2022-11-02T23:32:25.411Z,1.75
2022-11-02T23:35:14.743Z,1.70
2022-11-02T23:37:44.729Z,1.15
2022-11-02T23:40:16.052Z,1.70
2022-11-02T23:45:15.406Z,1.60
2022-11-02T23:48:01.157Z,1.35
2022-11-02T23:50:51.233Z,1.35
2022-11-02T23:53:41.109Z,1.75
2022-11-02T23:56:34.016Z,1.40
2022-11-02T23:59:09.107Z,1.17
